Time;durP1;ratioP1;P1;durP2;ratioP2;P2;SDS_P1;SDS_P2;PMS_P1;PMS_P2;Temp;Humidity;BMP_temperature;BMP_pressure;BME280_temperature;BME280_humidity;BME280_pressure;Samples;Min_cycle;Max_cycle;Signal;HPM_P1;HPM_P2
2021/07/01 00:00:01;;;;;;;3.88;2.97;;;;;;;20.40;75.19;100654.81;6126292;23;20010;-80
2021/07/01 00:02:26;;;;;;;3.35;2.85;;;;;;;20.37;75.54;100648.94;6152769;23;20005;-80
2021/07/01 00:04:51;;;;;;;3.55;2.97;;;;;;;20.46;75.49;100655.06;6126776;23;20024;-80
2021/07/01 00:07:17;;;;;;;5.63;3.25;;;;;;;20.45;75.55;100654.22;6152833;23;20009;-80
2021/07/01 00:09:42;;;;;;;6.60;3.75;;;;;;;20.51;75.79;100652.56;6152804;23;20414;-80
2021/07/01 00:12:07;;;;;;;4.43;3.65;;;;;;;20.45;76.34;100643.31;6152672;23;20084;-80
2021/07/01 00:14:33;;;;;;;4.78;3.47;;;;;;;20.27;76.90;100640.28;6152893;23;20028;-80
2021/07/01 00:16:58;;;;;;;4.63;3.53;;;;;;;20.38;76.46;100647.88;6153304;23;20429;-80
2021/07/01 00:19:24;;;;;;;10.07;4.65;;;;;;;20.26;76.87;100650.31;6152439;23;20010;-80
2021/07/01 00:21:51;;;;;;;4.20;3.80;;;;;;;20.35;76.75;100651.84;6152969;23;20015;-80
2021/07/01 00:24:16;;;;;;;3.85;3.55;;;;;;;20.37;77.20;100651.66;6126303;23;20049;-80
2021/07/01 00:26:41;;;;;;;8.57;4.13;;;;;;;20.37;76.96;100644.31;6126517;23;20034;-81
2021/07/01 00:29:07;;;;;;;8.05;3.85;;;;;;;20.35;77.17;100648.28;6152362;23;20394;-80
2021/07/01 00:31:32;;;;;;;4.65;3.72;;;;;;;20.28;77.19;100647.41;6152959;23;20005;-80
2021/07/01 00:33:58;;;;;;;4.43;4.05;;;;;;;20.22;78.09;100640.84;6152809;23;20096;-80
2021/07/01 00:36:23;;;;;;;4.13;3.83;;;;;;;20.19;78.50;100642.09;6153042;23;20076;-80
2021/07/01 00:38:50;;;;;;;4.90;3.75;;;;;;;20.30;78.00;100646.16;6152493;23;20005;-80
2021/07/01 00:41:16;;;;;;;6.68;3.95;;;;;;;20.29;78.46;100639.00;6126150;23;20401;-80
2021/07/01 00:43:42;;;;;;;4.13;3.72;;;;;;;20.21;77.61;100639.19;6152620;23;20006;-80
2021/07/01 00:46:12;;;;;;;4.38;3.80;;;;;;;20.18;77.86;100637.69;6126180;23;20083;-80
2021/07/01 00:48:38;;;;;;;6.05;3.45;;;;;;;20.19;77.09;100633.06;6152355;23;20069;-80
2021/07/01 00:51:04;;;;;;;4.32;3.40;;;;;;;20.27;77.07;100641.09;6152784;23;20457;-80
2021/07/01 00:53:29;;;;;;;7.72;3.70;;;;;;;20.23;76.90;100634.34;6152028;23;20037;-80
2021/07/01 00:55:55;;;;;;;4.05;3.65;;;;;;;20.19;76.59;100627.59;6152229;23;20012;-80
2021/07/01 00:58:21;;;;;;;7.13;3.67;;;;;;;20.24;76.36;100635.22;6152392;23;20100;-80
2021/07/01 01:01:02;;;;;;;4.70;4.15;;;;;;;20.25;76.71;100629.53;6152316;23;20009;-80
2021/07/01 01:03:32;;;;;;;4.47;4.17;;;;;;;20.16;76.64;100628.84;6152300;23;20009;-80
2021/07/01 01:05:58;;;;;;;5.40;3.80;;;;;;;20.28;76.66;100639.22;6125774;23;20016;-80
2021/07/01 01:08:24;;;;;;;5.30;4.80;;;;;;;20.26;76.83;100627.63;6152273;23;20013;-80
2021/07/01 01:10:50;;;;;;;5.68;4.00;;;;;;;20.25;77.00;100635.00;6152358;23;20370;-80
2021/07/01 01:13:23;;;;;;;10.38;4.50;;;;;;;20.24;76.82;100627.03;6125707;23;20033;-80
2021/07/01 01:15:51;;;;;;;7.03;4.50;;;;;;;20.34;76.53;100627.47;6126055;23;20012;-80
2021/07/01 01:18:16;;;;;;;7.40;4.88;;;;;;;20.36;76.77;100625.41;6152589;23;20033;-80
2021/07/01 01:20:42;;;;;;;5.50;4.75;;;;;;;20.34;76.54;100622.03;6151901;23;20021;-80
2021/07/01 01:23:08;;;;;;;6.03;5.38;;;;;;;20.38;76.32;100624.13;6125692;23;20009;-80
2021/07/01 01:25:33;;;;;;;6.78;5.53;;;;;;;20.35;76.46;100620.97;6126191;23;20457;-80
2021/07/01 01:27:58;;;;;;;13.00;4.93;;;;;;;20.42;76.17;100616.41;6152226;23;20025;-80
2021/07/01 01:30:23;;;;;;;7.40;5.28;;;;;;;20.41;76.45;100611.97;6126058;23;20021;-80
2021/07/01 01:32:50;;;;;;;8.60;5.45;;;;;;;20.45;75.94;100607.78;6126414;23;20030;-80
2021/07/01 01:35:15;;;;;;;8.15;4.95;;;;;;;20.38;76.53;100609.63;6125614;23;20025;-80
2021/07/01 01:37:40;;;;;;;6.90;5.30;;;;;;;20.37;76.42;100607.97;6126031;23;20394;-80
2021/07/01 01:40:06;;;;;;;8.23;5.80;;;;;;;20.39;76.41;100603.97;6151880;23;20075;-80
2021/07/01 01:42:32;;;;;;;8.95;6.75;;;;;;;20.38;76.77;100602.28;6152254;23;20044;-80
2021/07/01 01:44:57;;;;;;;10.77;6.45;;;;;;;20.43;77.03;100602.53;6152709;23;20446;-80
2021/07/01 01:47:22;;;;;;;16.38;5.55;;;;;;;20.44;76.59;100608.81;6152482;23;20084;-80
2021/07/01 01:49:49;;;;;;;6.45;5.55;;;;;;;20.49;76.74;100609.06;6152076;23;20869;-80
2021/07/01 01:52:15;;;;;;;7.63;5.90;;;;;;;20.50;76.61;100608.00;6125515;23;20104;-80
2021/07/01 01:54:40;;;;;;;9.48;6.50;;;;;;;20.52;76.65;100610.56;6152066;23;20009;-80
2021/07/01 01:57:06;;;;;;;6.97;5.47;;;;;;;20.61;76.22;100610.19;6152512;23;20081;-80
2021/07/01 01:59:32;;;;;;;8.07;6.53;;;;;;;20.53;77.06;100599.44;6125372;23;20032;-80
2021/07/01 02:01:57;;;;;;;9.60;7.35;;;;;;;20.51;77.18;100608.84;6152424;23;20083;-80
2021/07/01 02:04:22;;;;;;;11.50;6.85;;;;;;;20.59;76.72;100603.25;6151817;23;20005;-80
2021/07/01 02:06:48;;;;;;;12.50;6.97;;;;;;;20.51;77.40;100601.50;6125789;23;20020;-81
2021/07/01 02:09:13;;;;;;;9.60;7.63;;;;;;;20.55;77.21;100605.53;6152995;23;20013;-81
2021/07/01 02:11:39;;;;;;;11.07;8.27;;;;;;;20.49;77.63;100594.56;6127359;23;20005;-81
2021/07/01 02:14:04;;;;;;;9.65;7.55;;;;;;;20.57;77.81;100597.13;6153509;23;20080;-81
2021/07/01 02:16:29;;;;;;;13.35;8.25;;;;;;;20.53;77.23;100595.84;6127543;23;20096;-80
2021/07/01 02:18:55;;;;;;;10.02;8.07;;;;;;;20.56;77.43;100599.03;6153656;23;20116;-80
2021/07/01 02:21:21;;;;;;;11.40;8.85;;;;;;;20.63;77.51;100608.09;6153957;23;20033;-80
2021/07/01 02:23:48;;;;;;;11.77;8.85;;;;;;;20.58;77.39;100599.66;6154164;23;20048;-80
2021/07/01 02:26:13;;;;;;;12.02;8.18;;;;;;;20.54;77.56;100598.41;6153865;23;20046;-80
2021/07/01 02:28:38;;;;;;;20.33;9.20;;;;;;;20.59;77.82;100595.03;6153770;23;20017;-80
2021/07/01 02:31:04;;;;;;;16.88;8.80;;;;;;;20.61;77.37;100604.72;6153523;23;20084;-80
2021/07/01 02:33:29;;;;;;;17.75;9.80;;;;;;;20.58;78.02;100591.47;6153968;23;20377;-80
2021/07/01 02:35:54;;;;;;;15.38;9.30;;;;;;;20.52;77.98;100605.94;6153750;23;20338;-80
2021/07/01 02:38:20;;;;;;;10.73;8.30;;;;;;;20.54;77.86;100612.06;6153311;23;20085;-80
2021/07/01 02:40:45;;;;;;;13.07;8.85;;;;;;;20.58;77.67;100612.50;6153417;23;20014;-80
2021/07/01 02:43:11;;;;;;;12.13;8.90;;;;;;;20.56;77.89;100606.38;6153908;23;20445;-80
2021/07/01 02:45:36;;;;;;;13.65;9.52;;;;;;;20.46;78.21;100604.00;6153259;23;20009;-80
2021/07/01 02:48:02;;;;;;;22.05;9.68;;;;;;;20.53;77.63;100602.16;6127192;23;20017;-80
2021/07/01 02:50:28;;;;;;;13.05;9.10;;;;;;;20.52;77.99;100605.94;6153425;23;20422;-80
2021/07/01 02:52:53;;;;;;;12.98;9.07;;;;;;;20.56;77.82;100603.66;6153674;23;20012;-80
2021/07/01 02:55:18;;;;;;;13.40;8.88;;;;;;;20.59;77.52;100608.69;6153587;23;20005;-80
2021/07/01 02:57:44;;;;;;;17.98;9.82;;;;;;;20.57;77.69;100603.47;6127219;23;20084;-80
2021/07/01 03:00:13;;;;;;;14.77;8.93;;;;;;;20.62;77.64;100603.66;6152997;23;20005;-80
2021/07/01 03:02:39;;;;;;;18.05;9.85;;;;;;;20.53;77.87;100613.09;6126983;23;20033;-80
2021/07/01 03:05:05;;;;;;;15.25;8.70;;;;;;;20.40;78.79;100613.84;6126845;23;20076;-80
2021/07/01 03:07:30;;;;;;;20.38;10.93;;;;;;;20.41;78.79;100609.22;6153098;23;20013;-80
2021/07/01 03:09:56;;;;;;;17.17;10.48;;;;;;;20.46;78.78;100609.47;6152782;23;20441;-80
2021/07/01 03:12:23;;;;;;;13.68;9.93;;;;;;;20.46;78.57;100612.19;6127157;23;20397;-80
2021/07/01 03:14:48;;;;;;;22.17;10.85;;;;;;;20.47;78.46;100613.03;6152932;23;20012;-80
2021/07/01 03:17:14;;;;;;;21.77;11.18;;;;;;;20.52;77.90;100613.31;6126810;23;20005;-80
2021/07/01 03:19:39;;;;;;;19.73;10.05;;;;;;;20.52;78.51;100616.88;6152941;23;20335;-80
2021/07/01 03:22:05;;;;;;;18.50;10.35;;;;;;;20.42;78.75;100614.50;6153566;23;20552;-81
2021/07/01 03:24:30;;;;;;;16.40;9.82;;;;;;;20.50;78.63;100612.63;6126847;23;20405;-80
2021/07/01 03:26:59;;;;;;;15.95;9.68;;;;;;;20.43;78.37;100618.06;6153849;23;20009;-80
2021/07/01 03:29:24;;;;;;;17.40;9.80;;;;;;;20.48;79.02;100614.72;6152990;23;20105;-80
2021/07/01 03:31:50;;;;;;;15.25;10.30;;;;;;;20.53;78.93;100617.72;6127376;23;20380;-80
2021/07/01 03:34:15;;;;;;;17.25;9.05;;;;;;;20.52;79.04;100613.31;6153717;23;20452;-80
2021/07/01 03:36:40;;;;;;;16.60;10.23;;;;;;;20.51;79.91;100609.72;6153590;23;20017;-80
2021/07/01 03:39:06;;;;;;;19.13;11.55;;;;;;;20.52;79.73;100608.69;6126764;23;20398;-80
2021/07/01 03:41:31;;;;;;;14.82;10.30;;;;;;;20.54;78.97;100603.88;6153679;23;20013;-80
2021/07/01 03:43:57;;;;;;;17.55;11.13;;;;;;;20.51;79.60;100606.97;6153615;23;20009;-80
2021/07/01 03:46:22;;;;;;;22.58;11.52;;;;;;;20.50;79.73;100608.00;6153664;23;20020;-81
2021/07/01 03:48:48;;;;;;;22.25;10.27;;;;;;;20.47;79.70;100605.69;6153472;23;20012;-80
2021/07/01 03:51:13;;;;;;;13.25;9.20;;;;;;;20.51;79.45;100601.50;6126819;23;20006;-80
2021/07/01 03:53:39;;;;;;;17.58;9.63;;;;;;;20.51;79.26;100604.25;6126257;23;20009;-80
2021/07/01 03:56:04;;;;;;;15.82;9.93;;;;;;;20.53;78.96;100601.31;6153333;23;20005;-80
2021/07/01 03:58:30;;;;;;;16.48;10.90;;;;;;;20.55;79.10;100602.81;6152956;23;20048;-80
2021/07/01 04:00:55;;;;;;;12.75;9.25;;;;;;;20.55;78.94;100599.25;6153502;23;20036;-80
2021/07/01 04:03:21;;;;;;;15.25;10.35;;;;;;;20.54;78.79;100600.25;6153499;23;20366;-80
2021/07/01 04:05:46;;;;;;;15.80;10.50;;;;;;;20.61;79.14;100598.41;6153280;23;20382;-80
2021/07/01 04:08:12;;;;;;;22.60;11.95;;;;;;;20.60;78.89;100597.59;6126350;23;20006;-80
2021/07/01 04:10:37;;;;;;;16.35;10.38;;;;;;;20.50;78.83;100593.50;6153270;23;20005;-80
2021/07/01 04:13:03;;;;;;;23.90;10.63;;;;;;;20.48;78.79;100604.66;6127096;23;20010;-80
2021/07/01 04:15:28;;;;;;;16.45;11.05;;;;;;;20.49;78.93;100598.13;6153102;23;20545;-81
2021/07/01 04:17:54;;;;;;;19.65;11.90;;;;;;;20.46;79.16;100601.28;6126619;23;20013;-80
2021/07/01 04:20:19;;;;;;;16.75;12.02;;;;;;;20.46;79.11;100603.16;6152335;23;20009;-80
2021/07/01 04:22:44;;;;;;;19.70;12.23;;;;;;;20.51;79.11;100609.72;6152890;23;20015;-80
2021/07/01 04:25:10;;;;;;;27.55;12.88;;;;;;;20.46;79.25;100612.19;6152402;23;20009;-80
2021/07/01 04:27:36;;;;;;;19.48;13.38;;;;;;;20.50;79.45;100607.16;6152909;23;20015;-80
2021/07/01 04:30:03;;;;;;;18.00;13.80;;;;;;;20.32;79.47;100614.00;6126289;23;20096;-80
2021/07/01 04:32:28;;;;;;;19.25;13.95;;;;;;;20.39;79.46;100614.06;6152628;23;20452;-80
2021/07/01 04:34:54;;;;;;;22.73;14.13;;;;;;;20.38;79.51;100617.81;6126028;23;20041;-80
2021/07/01 04:37:19;;;;;;;29.65;14.07;;;;;;;20.39;79.02;100617.63;6126066;23;20005;-80
2021/07/01 04:39:44;;;;;;;23.85;13.57;;;;;;;20.35;78.91;100621.81;6152347;23;20005;-80
2021/07/01 04:42:10;;;;;;;23.02;14.38;;;;;;;20.32;78.81;100616.75;6126080;23;20001;-80
2021/07/01 04:44:35;;;;;;;27.02;13.25;;;;;;;20.41;78.69;100620.16;6152374;23;20079;-80
2021/07/01 04:47:01;;;;;;;23.73;13.68;;;;;;;20.44;78.81;100623.31;6126079;23;20060;-80
2021/07/01 04:49:26;;;;;;;18.27;12.98;;;;;;;20.40;78.52;100627.50;6152379;23;20008;-80
2021/07/01 04:51:51;;;;;;;21.50;13.55;;;;;;;20.36;78.55;100623.50;6152546;23;20016;-80
2021/07/01 04:54:17;;;;;;;21.23;13.43;;;;;;;20.48;78.41;100626.50;6152216;23;20009;-80
2021/07/01 04:56:46;;;;;;;22.05;13.25;;;;;;;20.53;77.80;100620.44;6152192;23;20009;-80
2021/07/01 04:59:16;;;;;;;18.70;13.25;;;;;;;20.49;78.27;100627.34;6152286;23;20005;-80
2021/07/01 05:01:42;;;;;;;23.08;14.10;;;;;;;20.62;78.13;100622.78;6152298;23;20453;-80
2021/07/01 05:04:09;;;;;;;15.27;11.65;;;;;;;20.64;77.72;100626.19;6152766;23;20338;-80
2021/07/01 05:06:35;;;;;;;25.05;13.63;;;;;;;20.57;77.35;100629.91;6126790;23;20009;-80
2021/07/01 05:09:01;;;;;;;21.83;13.32;;;;;;;20.63;77.92;100629.97;6125937;23;20024;-80
2021/07/01 05:11:26;;;;;;;19.77;13.18;;;;;;;20.63;77.61;100632.69;6126081;23;20028;-80
2021/07/01 05:13:52;;;;;;;20.27;13.20;;;;;;;20.76;77.64;100628.31;6152415;23;20017;-80
2021/07/01 05:16:17;;;;;;;22.10;12.93;;;;;;;20.79;76.86;100625.19;6126108;23;20002;-80
2021/07/01 05:18:42;;;;;;;22.75;13.25;;;;;;;20.88;77.22;100621.22;6152456;23;20005;-80
2021/07/01 05:21:08;;;;;;;16.75;12.00;;;;;;;20.94;76.50;100623.13;6125961;23;20016;-80
2021/07/01 05:23:33;;;;;;;22.92;12.75;;;;;;;20.92;76.35;100625.22;6152584;23;20484;-80
2021/07/01 05:25:58;;;;;;;17.05;12.18;;;;;;;20.98;76.50;100627.13;6152281;23;20377;-80
2021/07/01 05:28:24;;;;;;;18.30;10.65;;;;;;;21.08;76.46;100624.81;6152138;23;20032;-81
2021/07/01 05:30:50;;;;;;;20.50;10.27;;;;;;;21.00;75.00;100629.66;6125984;23;20005;-80
2021/07/01 05:33:15;;;;;;;18.48;10.95;;;;;;;21.10;75.40;100625.47;6152707;23;20080;-80
2021/07/01 05:35:41;;;;;;;17.85;11.00;;;;;;;21.17;75.48;100619.16;6126337;23;20017;-80
2021/07/01 05:38:07;;;;;;;15.52;9.52;;;;;;;21.22;75.04;100617.47;6152247;23;20088;-80
2021/07/01 05:40:32;;;;;;;18.70;10.65;;;;;;;21.23;74.53;100612.84;6152403;23;20010;-80
2021/07/01 05:42:57;;;;;;;17.80;11.55;;;;;;;21.32;74.72;100617.91;6152888;23;20067;-80
2021/07/01 05:45:23;;;;;;;14.93;10.82;;;;;;;21.36;74.74;100620.25;6128102;23;20013;-80
2021/07/01 05:47:49;;;;;;;16.33;10.10;;;;;;;21.30;74.44;100613.69;6154447;23;20032;-80
2021/07/01 05:50:14;;;;;;;15.60;11.02;;;;;;;21.26;73.79;100617.91;6154187;23;20006;-80
2021/07/01 05:52:44;;;;;;;21.10;11.57;;;;;;;21.20;74.07;100616.00;6154351;23;20009;-80
2021/07/01 05:55:11;;;;;;;19.40;12.68;;;;;;;21.19;74.95;100617.06;6127820;23;20014;-81
2021/07/01 05:57:36;;;;;;;22.48;12.20;;;;;;;21.16;74.79;100620.22;6154139;23;20500;-80
2021/07/01 06:00:05;;;;;;;16.13;11.48;;;;;;;21.28;75.20;100618.53;6154040;23;20013;-80
2021/07/01 06:02:31;;;;;;;16.40;10.85;;;;;;;21.42;74.28;100624.88;6127491;23;20310;-80
2021/07/01 06:04:56;;;;;;;22.10;12.88;;;;;;;21.49;74.47;100623.84;6127761;23;20033;-80
2021/07/01 06:07:26;;;;;;;19.02;11.10;;;;;;;21.65;71.87;100625.31;6154330;23;20013;-80
2021/07/01 06:09:53;;;;;;;17.00;10.23;;;;;;;21.72;71.87;100620.66;6127392;23;20137;-80
2021/07/01 06:12:21;;;;;;;16.17;11.10;;;;;;;21.70;72.50;100619.19;6153464;23;20009;-80
2021/07/01 06:14:47;;;;;;;16.90;12.10;;;;;;;21.63;71.57;100618.38;6127924;23;20353;-80
2021/07/01 06:17:16;;;;;;;13.15;10.95;;;;;;;21.67;71.15;100622.34;6128235;23;20039;-80
2021/07/01 06:19:41;;;;;;;16.52;10.15;;;;;;;21.80;71.51;100616.88;6127605;23;20012;-81
2021/07/01 06:22:07;;;;;;;17.08;10.52;;;;;;;21.86;70.78;100613.28;6127534;23;20010;-80
2021/07/01 06:24:34;;;;;;;17.10;11.18;;;;;;;21.87;69.23;100619.59;6154886;23;20071;-80
2021/07/01 06:27:02;;;;;;;18.35;11.18;;;;;;;21.84;69.62;100620.88;6153840;23;20010;-81
2021/07/01 06:29:27;;;;;;;16.52;10.43;;;;;;;21.69;68.10;100623.00;6153770;23;20026;-80
2021/07/01 06:31:52;;;;;;;16.63;10.25;;;;;;;21.55;69.39;100622.16;6155160;23;20005;-80
2021/07/01 06:34:18;;;;;;;16.20;10.40;;;;;;;21.52;69.42;100617.13;6153869;23;20012;-81
2021/07/01 06:36:47;;;;;;;11.88;9.93;;;;;;;21.35;68.56;100622.13;6153536;23;20032;-80
2021/07/01 06:39:13;;;;;;;20.13;10.15;;;;;;;21.29;69.28;100620.22;6153509;23;20010;-80
2021/07/01 06:41:43;;;;;;;13.98;10.10;;;;;;;21.37;71.10;100622.78;6153775;23;20056;-80
2021/07/01 06:44:10;;;;;;;12.25;9.85;;;;;;;21.48;70.28;100629.50;6153832;23;20324;-80
2021/07/01 06:46:35;;;;;;;17.42;8.68;;;;;;;21.61;69.35;100625.94;6154481;23;20009;-80
2021/07/01 06:49:01;;;;;;;15.25;8.68;;;;;;;21.62;69.01;100627.63;6128235;23;20096;-80
2021/07/01 06:51:32;;;;;;;11.65;8.70;;;;;;;21.69;69.31;100633.94;6127692;23;20009;-80
2021/07/01 06:53:58;;;;;;;;;;;;;;;21.87;67.51;100623.19;6154443;23;20013;-80
2021/07/01 06:56:25;;;;;;;14.98;9.18;;;;;;;21.81;68.93;100626.75;6127911;23;20206;-80
2021/07/01 06:58:51;;;;;;;16.85;8.95;;;;;;;21.85;68.74;100635.41;6154006;23;20424;-80
2021/07/01 07:01:18;;;;;;;15.75;9.35;;;;;;;21.89;68.33;100629.28;6127599;23;20082;-80
2021/07/01 07:03:44;;;;;;;17.52;10.38;;;;;;;21.69;66.78;100636.69;6153819;23;20012;-80
2021/07/01 07:06:10;;;;;;;12.77;8.50;;;;;;;21.81;68.19;100634.97;6154763;23;20017;-80
2021/07/01 07:08:36;;;;;;;11.77;8.65;;;;;;;21.85;68.06;100630.75;6153737;23;20015;-80
2021/07/01 07:11:02;;;;;;;11.35;9.07;;;;;;;21.80;68.11;100631.41;6127285;23;20014;-80
2021/07/01 07:13:27;;;;;;;15.80;9.05;;;;;;;21.77;68.83;100631.00;6153951;23;20080;-80
2021/07/01 07:15:57;;;;;;;12.75;9.55;;;;;;;21.76;68.45;100637.50;6127765;23;20005;-80
2021/07/01 07:18:29;;;;;;;11.55;8.77;;;;;;;21.69;68.86;100642.16;6154259;23;20013;-80
2021/07/01 07:20:59;;;;;;;14.05;7.80;;;;;;;21.59;67.39;100637.09;6154265;23;20438;-81
2021/07/01 07:23:29;;;;;;;9.20;6.55;;;;;;;21.53;67.58;100641.53;6154367;23;20385;-81
2021/07/01 07:25:55;;;;;;;9.57;8.05;;;;;;;21.69;68.62;100642.16;6154665;23;20080;-80
2021/07/01 07:28:24;;;;;;;11.18;6.95;;;;;;;21.57;68.28;100648.25;6128558;23;20025;-81
2021/07/01 07:30:52;;;;;;;9.05;7.47;;;;;;;21.55;68.29;100647.63;6154542;23;20001;-80
2021/07/01 07:33:27;;;;;;;13.20;7.85;;;;;;;21.55;68.56;100642.16;6153809;23;20404;-80
2021/07/01 07:35:53;;;;;;;11.20;6.93;;;;;;;21.72;66.81;100644.47;6154123;23;20009;-80
2021/07/01 07:38:20;;;;;;;9.30;6.25;;;;;;;21.84;66.36;100648.25;6126992;23;20079;-80
2021/07/01 07:40:49;;;;;;;8.73;6.90;;;;;;;21.95;67.63;100658.56;6154732;23;20006;-80
2021/07/01 07:43:16;;;;;;;10.48;7.00;;;;;;;22.00;67.60;100650.53;6153392;23;20012;-80
2021/07/01 07:45:41;;;;;;;15.00;7.72;;;;;;;21.99;66.21;100657.06;6154151;23;20005;-80
2021/07/01 07:48:07;;;;;;;8.30;7.15;;;;;;;21.88;65.66;100651.41;6154804;23;20059;-80
2021/07/01 07:50:36;;;;;;;8.43;6.47;;;;;;;21.93;65.51;100646.97;6153654;23;20002;-80
2021/07/01 07:53:02;;;;;;;7.72;6.68;;;;;;;22.13;65.20;100651.56;6153823;23;20005;-81
2021/07/01 07:55:30;;;;;;;20.23;8.18;;;;;;;22.23;65.20;100657.50;6153513;23;20016;-81
2021/07/01 07:57:58;;;;;;;10.65;7.68;;;;;;;22.32;65.68;100658.94;6127015;23;20092;-80
2021/07/01 08:00:27;;;;;;;11.30;7.47;;;;;;;22.28;64.52;100654.09;6127201;23;20005;-80
2021/07/01 08:02:54;;;;;;;13.75;7.93;;;;;;;22.46;66.00;100657.81;6127148;23;20009;-80
2021/07/01 08:05:25;;;;;;;14.40;7.68;;;;;;;22.41;65.95;100654.91;6153726;23;20005;-80
2021/07/01 08:07:51;;;;;;;13.93;7.60;;;;;;;22.57;64.40;100652.75;6126877;23;20005;-80
2021/07/01 08:10:19;;;;;;;15.35;8.02;;;;;;;22.68;64.45;100655.66;6153673;23;20012;-80
2021/07/01 08:12:49;;;;;;;15.35;7.95;;;;;;;22.79;63.83;100661.50;6153723;23;20048;-81
2021/07/01 08:15:18;;;;;;;12.50;7.60;;;;;;;22.82;63.00;100664.66;6127201;23;20009;-81
2021/07/01 08:17:46;;;;;;;12.80;7.40;;;;;;;22.72;62.38;100669.75;6153742;23;20010;-80
2021/07/01 08:20:16;;;;;;;12.05;6.75;;;;;;;22.91;62.39;100663.34;6126697;23;20056;-80
2021/07/01 08:22:43;;;;;;;8.70;6.70;;;;;;;22.94;62.14;100660.19;6126749;23;20521;-81
2021/07/01 08:25:10;;;;;;;11.95;7.25;;;;;;;22.77;61.87;100669.09;6153273;23;20002;-80
2021/07/01 08:27:37;;;;;;;11.88;7.53;;;;;;;22.76;61.97;100673.75;6153396;23;20010;-81
2021/07/01 08:30:05;;;;;;;14.77;6.65;;;;;;;22.75;62.24;100671.22;6153248;23;20029;-80
2021/07/01 08:32:32;;;;;;;7.88;6.20;;;;;;;22.70;62.84;100664.47;6102578;23;20025;-81
2021/07/01 08:35:00;;;;;;;7.95;6.07;;;;;;;22.72;63.59;100664.28;6153451;23;20498;-81
2021/07/01 08:37:28;;;;;;;9.43;6.53;;;;;;;22.73;62.39;100667.84;6127052;23;20020;-81
2021/07/01 08:39:54;;;;;;;13.15;6.15;;;;;;;22.92;61.36;100659.53;6153518;23;20005;-81
2021/07/01 08:42:25;;;;;;;9.05;6.35;;;;;;;22.87;61.62;100670.31;6126822;23;20513;-81
2021/07/01 08:44:57;;;;;;;10.13;5.88;;;;;;;22.91;60.79;100673.47;6126445;23;20032;-80
2021/07/01 08:47:30;;;;;;;9.50;6.10;;;;;;;23.06;60.64;100659.50;6126837;23;20040;-81
2021/07/01 08:49:57;;;;;;;9.60;6.03;;;;;;;23.24;60.80;100664.25;6152850;23;20037;-81
2021/07/01 08:52:30;;;;;;;9.43;5.65;;;;;;;23.25;59.71;100676.91;6153297;23;20005;-81
2021/07/01 08:55:01;;;;;;;7.85;5.80;;;;;;;23.23;59.06;100663.38;6153998;23;20009;-81
2021/07/01 08:57:28;;;;;;;;;;;;;;;23.26;59.33;100657.44;6154022;23;20010;-81
2021/07/01 09:00:09;;;;;;;6.63;5.35;;;;;;;23.48;59.23;100670.81;6126583;23;19912;-81
2021/07/01 09:02:40;;;;;;;9.50;5.65;;;;;;;23.42;59.02;100669.81;6155478;23;20060;-81
2021/07/01 09:05:13;;;;;;;;;;;;;;;23.24;58.31;100667.81;6155797;23;20048;-80
2021/07/01 09:07:40;;;;;;;11.60;6.70;;;;;;;23.26;59.03;100659.34;6153503;23;20301;-81
2021/07/01 09:10:09;;;;;;;9.00;5.40;;;;;;;23.35;57.76;100667.09;6153595;23;20445;-80
2021/07/01 09:12:39;;;;;;;8.90;5.68;;;;;;;23.58;57.89;100662.94;6153173;23;20010;-81
2021/07/01 09:15:10;;;;;;;13.57;5.70;;;;;;;23.68;58.48;100667.94;6153107;23;20125;-81
2021/07/01 09:17:38;;;;;;;10.45;6.57;;;;;;;23.61;57.73;100667.97;6153064;23;20105;-81
2021/07/01 09:20:08;;;;;;;9.00;6.22;;;;;;;23.26;57.61;100665.69;6153045;23;20009;-81
2021/07/01 09:22:34;;;;;;;8.40;5.93;;;;;;;23.06;57.81;100668.56;6153079;23;20009;-80
2021/07/01 09:25:00;;;;;;;8.15;6.20;;;;;;;23.32;58.38;100677.69;6126229;23;20560;-81
2021/07/01 09:27:26;;;;;;;9.73;6.63;;;;;;;23.32;59.00;100672.19;6126634;23;20010;-80
2021/07/01 09:29:52;;;;;;;8.98;6.22;;;;;;;23.35;58.64;100669.84;6152908;23;20024;-81
2021/07/01 09:32:19;;;;;;;9.63;5.70;;;;;;;23.33;58.41;100677.47;6152740;23;20142;-81
2021/07/01 09:34:46;;;;;;;9.02;6.43;;;;;;;23.47;57.92;100671.88;6154572;23;20006;-81
2021/07/01 09:37:12;;;;;;;8.73;6.43;;;;;;;23.46;59.41;100682.03;6152802;23;20032;-80
2021/07/01 09:39:38;;;;;;;11.98;6.63;;;;;;;23.58;57.28;100687.66;6153457;23;20402;-81
2021/07/01 09:42:05;;;;;;;9.77;6.50;;;;;;;23.68;56.72;100677.00;6153982;23;20306;-81
2021/07/01 09:44:33;;;;;;;13.32;6.82;;;;;;;23.70;56.88;100687.81;6153723;23;20009;-81
2021/07/01 09:47:05;;;;;;;14.00;6.00;;;;;;;23.77;57.12;100688.59;6153595;23;20441;-81
2021/07/01 09:49:41;;;;;;;7.85;5.72;;;;;;;24.01;56.35;100681.41;6153835;23;20427;-80
2021/07/01 09:52:09;;;;;;;10.75;5.97;;;;;;;24.11;55.43;100689.97;6153182;23;20009;-81
2021/07/01 09:54:37;;;;;;;9.10;5.63;;;;;;;24.24;54.52;100686.22;6152870;23;20005;-81
2021/07/01 09:57:08;;;;;;;10.55;5.95;;;;;;;24.04;54.46;100684.53;6153062;23;20083;-81
2021/07/01 09:59:43;;;;;;;9.55;5.53;;;;;;;24.03;54.07;100682.03;6152874;23;20009;-81
2021/07/01 10:02:17;;;;;;;7.80;5.28;;;;;;;23.90;53.79;100680.22;6152834;23;20012;-80
2021/07/01 10:04:45;;;;;;;11.32;5.53;;;;;;;23.98;54.09;100681.84;6126169;23;20009;-81
2021/07/01 10:07:16;;;;;;;9.95;5.97;;;;;;;23.78;55.83;100690.25;6152560;23;20005;-81
2021/07/01 10:09:43;;;;;;;10.95;5.63;;;;;;;23.79;56.22;100694.69;6152959;23;20072;-81
2021/07/01 10:12:32;;;;;;;8.20;5.60;;;;;;;23.72;55.89;100692.00;6153093;23;20460;-81
2021/07/01 10:15:01;;;;;;;9.05;5.95;;;;;;;23.79;55.52;100692.78;6153022;23;20009;-81
2021/07/01 10:17:29;;;;;;;8.43;6.43;;;;;;;24.00;54.18;100688.81;6153061;23;20005;-81
2021/07/01 10:20:09;;;;;;;7.45;5.82;;;;;;;24.08;53.53;100694.00;6153032;23;20361;-81
2021/07/01 10:22:40;;;;;;;11.02;6.00;;;;;;;24.30;54.22;100699.94;6152645;23;20016;-81
2021/07/01 10:25:07;;;;;;;8.35;5.55;;;;;;;24.53;54.79;100698.44;6153270;23;20411;-81
2021/07/01 10:27:40;;;;;;;8.68;4.93;;;;;;;24.63;53.64;100701.47;6126207;23;20013;-81
2021/07/01 10:30:14;;;;;;;8.77;5.78;;;;;;;24.59;52.18;100692.03;6122871;23;20021;-80
2021/07/01 10:32:48;;;;;;;8.68;5.38;;;;;;;24.50;52.38;100694.22;6099803;23;20006;-81
2021/07/01 10:35:23;;;;;;;9.85;5.45;;;;;;;24.42;52.60;100702.78;6125320;23;20086;-81
2021/07/01 10:38:00;;;;;;;9.38;4.45;;;;;;;24.46;52.35;100704.00;6125073;23;20024;-81
2021/07/01 10:40:26;;;;;;;7.20;5.25;;;;;;;24.49;51.97;100697.22;6125190;23;20081;-81
2021/07/01 10:42:55;;;;;;;6.97;5.45;;;;;;;24.64;52.88;100700.44;6098913;23;20052;-80
2021/07/01 10:45:21;;;;;;;9.90;4.97;;;;;;;24.61;51.56;100705.53;6125133;23;20012;-80
2021/07/01 10:47:46;;;;;;;5.28;4.55;;;;;;;24.40;49.93;100702.16;6123368;23;20010;-80
2021/07/01 10:50:21;;;;;;;6.88;5.10;;;;;;;24.50;49.69;100696.16;6124880;23;20021;-80
2021/07/01 10:52:47;;;;;;;9.73;5.63;;;;;;;24.55;49.74;100693.56;6124937;23;20057;-81
2021/07/01 10:55:17;;;;;;;10.23;5.10;;;;;;;24.61;50.74;100700.88;6122752;23;20010;-81
2021/07/01 10:57:48;;;;;;;9.35;5.18;;;;;;;24.77;50.08;100700.25;6125119;23;20012;-81
2021/07/01 11:00:14;;;;;;;10.65;5.35;;;;;;;24.86;49.74;100699.97;6124596;23;20010;-81
2021/07/01 11:02:49;;;;;;;6.32;3.97;;;;;;;25.20;49.63;100706.72;6125109;23;20017;-81
2021/07/01 11:05:15;;;;;;;10.13;5.68;;;;;;;25.27;48.32;100715.72;6126010;23;20386;-81
2021/07/01 11:07:42;;;;;;;8.55;4.68;;;;;;;25.43;48.65;100714.22;6124756;23;20009;-81
2021/07/01 11:10:08;;;;;;;7.63;4.90;;;;;;;25.43;48.30;100705.94;6128185;23;20330;-83
2021/07/01 11:12:42;;;;;;;7.60;5.03;;;;;;;25.41;48.35;100708.13;6125255;23;20080;-81
2021/07/01 11:15:08;;;;;;;6.68;5.13;;;;;;;25.60;48.78;100711.63;6123575;23;20065;-80
2021/07/01 11:17:39;;;;;;;6.93;4.90;;;;;;;25.54;47.54;100710.66;6124791;23;20456;-81